Flight Track Log - Related Links

Times and Time Zones

All times are in EST time to prevent confusion due to time zone crossing. See the UCA4771 flight status page for this flight to view local times or setup timezone preferences in your user account.

Time Position Orientation Groundspeed Altitude Reporting Facility
EST Latitude Longitude Course Direction KTS MPH feet Rate Location/Type
09:05AM 39.5845 -74.7864 203° Southwest  Level Estimated
09:06AM 39.5261 -74.8184 203° Southwest  Level Estimated
09:07AM 39.4677 -74.8503 203° Southwest  Level Estimated
09:08AM 39.4092 -74.8822 203° Southwest  Level Estimated
09:09AM 39.3508 -74.9140 203° Southwest  Level Estimated
09:10AM 39.2924 -74.9457 203° Southwest  Level Estimated
09:11AM 39.2339 -74.9774 203° Southwest  Level Estimated
09:12AM 39.1755 -75.0091 203° Southwest  Level Estimated
09:13AM 39.1170 -75.0406 203° Southwest  Level Estimated
09:14AM 39.0585 -75.0722 203° Southwest  Level Estimated
09:15AM 39.0000 -75.1037 203° Southwest  Level Estimated
09:16AM 38.9416 -75.1351 203° Southwest  Level Estimated
09:17AM 38.8830 -75.1665 203° Southwest  Level Estimated
09:18AM 38.8245 -75.1978 203° Southwest  Level Estimated
09:19AM 38.7660 -75.2291 203° Southwest  Level Estimated
09:20AM 38.7075 -75.2603 203° Southwest  Level Estimated
09:21AM 38.6490 -75.2915 203° Southwest  Level Estimated
09:22AM 38.5904 -75.3226 203° Southwest  Level Estimated
09:23AM 38.5319 -75.3537 203° Southwest  Level Estimated
09:24AM 38.4733 -75.3847 203° Southwest  Level Estimated
09:25AM 38.4147 -75.4157 203° Southwest  Level Estimated
09:26AM 38.3562 -75.4466 202° Southwest  Level Estimated
09:27AM 38.2976 -75.4775 202° Southwest  Level Estimated
09:28AM 38.2390 -75.5083 202° Southwest  Level Estimated
09:29AM 38.1804 -75.5391 202° Southwest  Level Estimated
09:30AM 38.1218 -75.5698 202° Southwest  Level Estimated
09:31AM 38.0632 -75.6005 202° Southwest  Level Estimated
09:32AM 38.0046 -75.6311 202° Southwest  Level Estimated
09:33AM 37.9459 -75.6617 202° Southwest  Level Estimated
09:34AM 37.8873 -75.6922 202° Southwest  Level Estimated
09:35AM 37.8287 -75.7227 202° Southwest  Level Estimated
09:36AM 37.7700 -75.7531 202° Southwest  Level Estimated
09:37AM 37.7113 -75.7835 202° Southwest  Level Estimated
09:38AM 37.6527 -75.8139 202° Southwest  Level Estimated
09:39AM 37.5940 -75.8441 202° Southwest  Level Estimated
09:40AM 37.5353 -75.8744 202° Southwest  Level Estimated
09:41AM 37.4766 -75.9046 202° Southwest  Level Estimated
09:42AM 37.4179 -75.9347 202° Southwest  Level Estimated
09:43AM 37.3592 -75.9648 202° Southwest  Level Estimated
09:44AM 37.3005 -75.9949 202° Southwest  Level Estimated
09:45AM 37.2418 -76.0249 202° Southwest  Level Estimated
09:46AM 37.1830 -76.0548 202° Southwest  Level Estimated
09:47AM 37.1243 -76.0847 202° Southwest  Level Estimated
09:48AM 37.0656 -76.1146 202° Southwest  Level Estimated
09:49AM 37.0068 -76.1444 202° Southwest  Level Estimated
09:50AM 36.9480 -76.1742 202° Southwest  Level Estimated
09:51AM 36.8946 -76.2012 202° Southwest  Level Estimated
09:52AM 36.8946 -76.2012 302° West  Level Estimated
09:53AM 36.8946 -76.2012 302° West  Level Estimated
09:54AM 36.8946 -76.2012 302° West  Level Estimated
09:55AM 36.8946 -76.2012 302° West  Level Estimated
09:56AM 36.8946 -76.2012 302° West  Level Estimated
09:57AM 36.8946 -76.2012 302° West  Level Estimated
09:58AM 36.8946 -76.2012 302° West  Level Estimated
09:59AM 36.8946 -76.2012 302° West  Level Estimated
10:00AM 36.8946 -76.2012 302° West  Level Estimated
10:01AM 36.8946 -76.2012 302° West  Level Estimated
10:02AM 36.8946 -76.2012 302° West  Level Estimated
10:03AM 36.8946 -76.2012 302° West  Level Estimated
10:04AM 36.8946 -76.2012 302° West  Level Estimated
10:05AM 36.8946 -76.2012 302° West  Level Estimated
10:06AM 36.8946 -76.2012 302° West  Level Estimated
10:07AM 36.8946 -76.2012 302° West  Level Estimated

Login

Don't have an account? Register now (free) for customized features, flight alerts, and more!